Date,TemperatureHighF,TemperatureAvgF,TemperatureLowF,DewpointHighF,DewpointAvgF,DewpointLowF,HumidityHigh,HumidityAvg,HumidityLow,PressureMaxIn,PressureMinIn,WindSpeedMaxMPH,WindSpeedAvgMPH,GustSpeedMaxMPH,PrecipitationSumIn
2013-5-1,66.4,66.4,66.4,35.7,35.7,35.7,32,32,32,30.33,29.80,3,3,3,0.00
2013-5-2,66.4,66.4,66.4,35.7,35.7,35.7,32,32,32,30.37,30.25,3,3,3,0.00
2013-5-3,66.4,50.6,33.5,35.7,33.5,30.8,91,60,32,30.26,29.99,16,6,19,0.47
2013-5-4,48.9,40.6,33.5,40.5,35.3,31.2,91,82,68,30.06,29.98,11,7,15,0.00
2013-5-5,67.8,55.2,46.1,46.4,41.6,38.3,74,62,45,30.05,29.92,6,1,10,0.00
2013-5-6,77.0,69.0,61.3,45.6,41.1,34.0,52,38,22,29.99,29.87,6,0,13,0.00
2013-5-7,79.6,74.6,66.6,41.2,36.4,33.5,39,25,21,29.97,29.82,11,1,15,0.00
2013-5-8,80.1,76.6,73.2,46.1,41.4,37.3,38,29,23,29.88,29.79,9,1,12,0.00
2013-5-9,73.2,73.2,73.2,46.1,46.1,46.1,38,38,38,29.95,29.80,0,0,0,0.00
2013-5-10,73.2,67.2,50.1,46.1,34.9,21.7,44,31,17,29.97,29.79,7,1,13,0.00
2013-5-11,62.6,52.3,41.5,31.6,24.4,20.5,65,35,23,30.02,29.71,21,7,33,0.01
2013-5-12,56.2,49.3,44.8,23.1,18.9,11.1,41,31,18,30.08,29.96,18,8,22,0.00
2013-5-13,63.5,56.6,52.3,35.2,24.1,17.5,38,29,21,30.03,29.59,16,5,21,0.00
2013-5-14,91.0,73.8,60.5,51.3,42.1,34.8,51,33,19,29.64,29.27,19,6,28,0.00
2013-5-15,87.0,78.2,65.8,50.0,44.6,39.2,42,31,27,29.79,29.46,12,2,19,0.00
2013-5-16,83.8,76.9,72.8,43.5,40.1,35.9,34,27,19,29.83,29.70,9,1,18,0.00
2013-5-17,76.8,64.8,53.6,52.5,44.8,37.3,93,58,24,29.95,29.79,12,3,22,0.07
2013-5-18,79.2,62.8,53.6,60.3,54.8,51.6,93,78,50,29.93,29.73,12,6,20,0.00
2013-5-19,84.5,77.9,75.1,63.3,60.4,59.6,63,55,43,29.74,29.52,14,2,23,0.00
2013-5-20,76.8,74.9,67.9,59.8,57.5,53.2,73,55,46,29.54,29.41,28,4,32,0.00
2013-5-21,71.8,69.1,63.9,62.0,54.2,50.7,85,60,53,29.58,29.41,12,1,19,0.02
2013-5-22,63.9,63.9,63.9,52.3,52.3,52.3,66,66,66,29.83,29.55,0,0,0,0.00
2013-5-23,63.9,60.2,48.8,52.3,37.4,23.7,66,45,24,30.24,29.82,14,4,21,0.00
2013-5-24,67.4,60.4,56.2,36.2,30.0,26.0,37,31,26,30.33,30.14,10,5,18,0.00
2013-5-25,63.4,63.4,63.4,36.0,36.0,36.0,36,36,36,30.21,30.14,5,5,5,0.00
2013-5-26,64.0,62.8,60.1,44.0,37.0,32.7,53,39,33,30.17,29.99,18,6,22,0.00
2013-5-27,61.3,61.3,61.3,44.0,44.0,44.0,53,53,53,30.01,29.77,7,7,7,0.00
2013-5-28,61.3,61.3,61.3,44.0,44.0,44.0,53,53,53,29.76,29.60,7,7,7,0.00
2013-5-29,78.8,68.9,61.3,64.6,54.9,44.0,91,62,53,29.75,29.60,7,4,20,0.00
2013-5-30,77.7,75.9,67.8,66.5,63.9,60.3,87,66,58,29.63,29.43,25,5,30,0.25
2013-5-31,77.4,75.0,69.4,62.9,60.2,57.3,68,60,50,29.52,29.44,23,9,30,0.00